map of PAS home
PAS - Airport
Location
City:  Paros, Notío Aigaío (Southern Aegean), Greece
ICAO:LGPA
IATA:PAS

Details
Type:Airport (Aerodrome, Airfield)
Latitude:37°00'37"N (37.010278)
Longitude:25°07'40"E (25.127778)
Elevation:121 ft (37 m)
Variation:4.63°E (WMM2015 magnetic declination)
0.10° annual change
Runways:1
Longest:2346 × 79 ft (715 × 24 m)

Time
Time Zone:UTC+2 (DST+3)
Local Time:

Weather
METAR:LGPA 160750Z AUTO 32004KT 290V010 //// -RA ////// 12/12 Q1011 RE//

Related Locations
Nearby:
Farthest:TUB: 11439 mi / 18409 km
Tubuai, Tubuai Islands, Austral Islands, PF

Find:

   beyond  
but within

Other Information
Maps:
NOTAMs:
Links:
Sources:

  
  • flag of Greece
  

Sectional Chart

Flight Planning
at skyvector.com

Satellite Image

Google Maps Satellite view

 

Copyright © 2004-2018 Karl L. Swartz. All rights reserved.
The Great Circle Mapper name and logo are trademarks of the Great Circle Mapper.
All other trademarks mentioned herein belong to their respective owners.
Please see credits for attibutions and further copyright information.

  Follow gcmap on Facebook Follow gcmap on Twitter Follow gcmap on Google+ GCmap on LinkedIn

hCard Microformat

Geo Microformat